Time;durP1;ratioP1;P1;durP2;ratioP2;P2;SDS_P1;SDS_P2;PMS_P1;PMS_P2;Temp;Humidity;BMP_temperature;BMP_pressure;BME280_temperature;BME280_humidity;BME280_pressure;Samples;Min_cycle;Max_cycle;Signal;HPM_P1;HPM_P2
2023/10/01 00:01:46;;;;;;;3.40;3.00;;;;;;;;;;5151774;27;20219;-67
2023/10/01 00:04:13;;;;;;;3.00;2.80;;;;;;;;;;5151083;27;20196;-68
2023/10/01 00:06:40;;;;;;;3.27;2.97;;;;;;;;;;5151434;27;20215;-67
2023/10/01 00:09:07;;;;;;;3.13;2.80;;;;;;;;;;5150673;27;20248;-67
2023/10/01 00:11:35;;;;;;;4.17;3.10;;;;;;;;;;5151257;27;20228;-68
2023/10/01 00:14:06;;;;;;;8.47;3.03;;;;;;;;;;5150963;27;20264;-68
2023/10/01 00:16:33;;;;;;;4.27;2.83;;;;;;;;;;5165914;27;20226;-68
2023/10/01 00:19:02;;;;;;;3.00;2.80;;;;;;;;;;5158580;27;20307;-67
2023/10/01 00:21:29;;;;;;;4.83;3.03;;;;;;;;;;5149858;27;20199;-68
2023/10/01 00:23:56;;;;;;;5.77;3.00;;;;;;;;;;5160216;27;20258;-68
2023/10/01 00:26:23;;;;;;;2.97;2.73;;;;;;;;;;5164829;27;20252;-68
2023/10/01 00:28:51;;;;;;;3.07;2.67;;;;;;;;;;5149460;27;20204;-68
2023/10/01 00:31:18;;;;;;;2.83;2.50;;;;;;;;;;5149945;27;20328;-68
2023/10/01 00:33:45;;;;;;;2.57;2.37;;;;;;;;;;5129340;27;20220;-68
2023/10/01 00:36:13;;;;;;;2.77;2.40;;;;;;;;;;5144599;27;20633;-68
2023/10/01 00:38:40;;;;;;;3.07;2.77;;;;;;;;;;5149603;27;20200;-68
2023/10/01 00:41:08;;;;;;;3.40;3.03;;;;;;;;;;5149685;27;20196;-67
2023/10/01 00:43:36;;;;;;;3.93;2.60;;;;;;;;;;5149816;27;20239;-68
2023/10/01 00:46:04;;;;;;;3.27;2.60;;;;;;;;;;5149697;27;20250;-68
2023/10/01 00:48:31;;;;;;;2.87;2.47;;;;;;;;;;5149644;27;20200;-68
2023/10/01 00:50:59;;;;;;;2.93;2.60;;;;;;;;;;5149650;27;20332;-68
2023/10/01 00:53:27;;;;;;;3.60;2.60;;;;;;;;;;5149769;27;20226;-67
2023/10/01 00:55:55;;;;;;;3.00;2.80;;;;;;;;;;5148924;27;20207;-67
2023/10/01 00:58:22;;;;;;;6.13;2.90;;;;;;;;;;5149349;27;20208;-67
2023/10/01 01:00:50;;;;;;;2.60;2.40;;;;;;;;;;5149531;27;20212;-67
2023/10/01 01:03:21;;;;;;;3.23;2.57;;;;;;;;;;5148047;27;20201;-67
2023/10/01 01:06:05;;;;;;;2.93;2.70;;;;;;;;;;5149330;27;20278;-68
2023/10/01 01:08:34;;;;;;;3.37;2.80;;;;;;;;;;5148335;27;20295;-68
2023/10/01 01:11:02;;;;;;;3.77;2.70;;;;;;;;;;5148988;27;20890;-67
2023/10/01 01:13:30;;;;;;;3.10;2.90;;;;;;;;;;5152888;27;20286;-67
2023/10/01 01:16:00;;;;;;;3.60;2.43;;;;;;;;;;5149050;27;20204;-67
2023/10/01 01:18:27;;;;;;;2.70;2.50;;;;;;;;;;5148656;27;20655;-67
2023/10/01 01:20:58;;;;;;;3.33;2.90;;;;;;;;;;5148583;27;20693;-68
2023/10/01 01:23:26;;;;;;;3.63;2.73;;;;;;;;;;5148585;27;20797;-67
2023/10/01 01:25:54;;;;;;;5.00;2.87;;;;;;;;;;5149445;27;20215;-68
2023/10/01 01:28:27;;;;;;;3.17;2.90;;;;;;;;;;5148232;27;20219;-67
2023/10/01 01:30:55;;;;;;;4.50;2.80;;;;;;;;;;5145913;27;20298;-68
2023/10/01 01:33:26;;;;;;;5.40;3.10;;;;;;;;;;5148758;27;20205;-68
2023/10/01 01:35:54;;;;;;;3.57;2.87;;;;;;;;;;5156297;27;20279;-68
2023/10/01 01:38:22;;;;;;;5.70;3.20;;;;;;;;;;5162371;27;20708;-67
2023/10/01 01:40:52;;;;;;;3.23;2.97;;;;;;;;;;5148982;27;20688;-68
2023/10/01 01:43:22;;;;;;;4.03;3.23;;;;;;;;;;5147961;27;20850;-68
2023/10/01 01:45:54;;;;;;;4.07;3.30;;;;;;;;;;5149209;27;20232;-68
2023/10/01 01:48:30;;;;;;;4.13;3.30;;;;;;;;;;5149124;27;20219;-67
2023/10/01 01:50:58;;;;;;;3.30;3.00;;;;;;;;;;5148604;27;20220;-68
2023/10/01 01:53:27;;;;;;;7.30;3.37;;;;;;;;;;5148456;27;20213;-68
2023/10/01 01:55:59;;;;;;;3.30;3.00;;;;;;;;;;5148212;27;20595;-68
2023/10/01 01:58:26;;;;;;;3.43;2.83;;;;;;;;;;5148679;27;20261;-68
2023/10/01 02:01:09;;;;;;;3.10;2.80;;;;;;;;;;5130656;27;20220;-68
2023/10/01 02:03:37;;;;;;;4.60;3.20;;;;;;;;;;5146245;27;20211;-68
2023/10/01 02:06:05;;;;;;;3.87;3.47;;;;;;;;;;5148240;27;20261;-68
2023/10/01 02:08:44;;;;;;;7.13;2.93;;;;;;;;;;5147839;27;20229;-67
2023/10/01 02:11:13;;;;;;;4.10;3.20;;;;;;;;;;5148174;27;20302;-68
2023/10/01 02:13:41;;;;;;;4.97;3.30;;;;;;;;;;5147524;27;20212;-67
2023/10/01 02:16:34;;;;;;;3.47;2.60;;;;;;;;;;5148352;27;20259;-68
2023/10/01 02:19:14;;;;;;;3.10;2.77;;;;;;;;;;5148029;27;20275;-67
2023/10/01 02:21:48;;;;;;;3.60;3.30;;;;;;;;;;5148054;27;20674;-68
2023/10/01 02:24:19;;;;;;;2.87;2.77;;;;;;;;;;5148379;27;20204;-68
2023/10/01 02:26:52;;;;;;;3.33;2.87;;;;;;;;;;5148130;27;20204;-68
2023/10/01 02:29:24;;;;;;;2.90;2.77;;;;;;;;;;5143508;27;20197;-68
2023/10/01 02:31:55;;;;;;;4.67;3.37;;;;;;;;;;5147210;27;20235;-68
2023/10/01 02:34:22;;;;;;;4.17;3.30;;;;;;;;;;5142557;27;20192;-68
2023/10/01 02:36:49;;;;;;;5.37;3.30;;;;;;;;;;5147885;27;20211;-67
2023/10/01 02:39:21;;;;;;;3.10;2.90;;;;;;;;;;5147719;27;20215;-67
2023/10/01 02:42:09;;;;;;;4.73;3.47;;;;;;;;;;5148031;27;20207;-67
2023/10/01 02:44:38;;;;;;;5.93;3.30;;;;;;;;;;5148138;27;20215;-66
2023/10/01 02:47:16;;;;;;;2.80;2.63;;;;;;;;;;5145003;27;20204;-66
2023/10/01 02:49:47;;;;;;;3.17;2.97;;;;;;;;;;5147590;27;20231;-66
2023/10/01 02:52:14;;;;;;;4.07;3.23;;;;;;;;;;5136620;27;20214;-68
2023/10/01 02:54:41;;;;;;;3.53;2.93;;;;;;;;;;5148306;27;20200;-67
2023/10/01 02:57:23;;;;;;;5.00;3.37;;;;;;;;;;5148413;27;20200;-67
2023/10/01 03:02:33;;;;;;;3.63;3.27;;;;;;;;;;5146504;27;20192;-67
2023/10/01 03:05:06;;;;;;;3.70;3.40;;;;;;;;;;5148480;27;20213;-67
2023/10/01 03:07:38;;;;;;;3.77;3.50;;;;;;;;;;5148254;27;20208;-67
2023/10/01 03:10:12;;;;;;;3.97;3.17;;;;;;;;;;5147735;27;20220;-67
2023/10/01 03:12:40;;;;;;;3.40;3.10;;;;;;;;;;5147965;27;20366;-67
2023/10/01 03:15:24;;;;;;;3.03;2.93;;;;;;;;;;5148267;27;20843;-67
2023/10/01 03:17:57;;;;;;;3.13;2.93;;;;;;;;;;5148330;27;20243;-67
2023/10/01 03:23:12;;;;;;;3.20;2.73;;;;;;;;;;5147902;27;20319;-67
2023/10/01 03:25:42;;;;;;;4.00;3.03;;;;;;;;;;5146223;27;20373;-67
2023/10/01 03:28:15;;;;;;;2.63;2.43;;;;;;;;;;5148589;27;20205;-67
2023/10/01 03:30:46;;;;;;;4.93;2.47;;;;;;;;;;5151862;27;20311;-67
2023/10/01 03:33:16;;;;;;;2.57;2.37;;;;;;;;;;5164076;27;20648;-68
2023/10/01 03:35:47;;;;;;;2.60;2.40;;;;;;;;;;5152903;27;20197;-68
2023/10/01 03:38:15;;;;;;;2.00;1.90;;;;;;;;;;5148869;27;20287;-68
2023/10/01 03:43:32;;;;;;;3.70;2.40;;;;;;;;;;5151377;27;20204;-68
2023/10/01 03:46:06;;;;;;;2.27;2.07;;;;;;;;;;5152263;27;20256;-68
2023/10/01 03:48:57;;;;;;;2.30;2.20;;;;;;;;;;5151461;27;20308;-68
2023/10/01 03:51:28;;;;;;;3.77;2.37;;;;;;;;;;5151136;27;20311;-68
2023/10/01 03:53:59;;;;;;;2.20;2.03;;;;;;;;;;5152192;27;20203;-68
2023/10/01 03:56:29;;;;;;;3.67;2.33;;;;;;;;;;5134475;27;20197;-68
2023/10/01 03:58:57;;;;;;;4.77;2.10;;;;;;;;;;5150318;27;20219;-69
2023/10/01 04:01:33;;;;;;;3.20;2.30;;;;;;;;;;5150305;27;20200;-68
2023/10/01 04:04:01;;;;;;;2.50;2.27;;;;;;;;;;5160072;27;20924;-68
2023/10/01 04:06:29;;;;;;;2.30;2.20;;;;;;;;;;5156246;27;20197;-68
2023/10/01 04:08:59;;;;;;;2.37;2.27;;;;;;;;;;5151612;27;20196;-68
2023/10/01 04:14:10;;;;;;;2.60;2.40;;;;;;;;;;5143869;27;20265;-68
2023/10/01 04:16:42;;;;;;;3.50;2.70;;;;;;;;;;5167015;27;20256;-68
2023/10/01 04:19:11;;;;;;;2.93;2.60;;;;;;;;;;5150225;27;20224;-68
2023/10/01 04:21:38;;;;;;;2.60;2.40;;;;;;;;;;5150910;27;20292;-68
2023/10/01 04:24:08;;;;;;;2.87;2.67;;;;;;;;;;5150990;27;20250;-68
2023/10/01 04:26:35;;;;;;;2.70;2.50;;;;;;;;;;5151251;27;20440;-69
2023/10/01 04:29:02;;;;;;;2.57;2.37;;;;;;;;;;5148912;27;20264;-68
2023/10/01 04:31:47;;;;;;;3.83;2.97;;;;;;;;;;5143450;27;20718;-68
2023/10/01 04:34:17;;;;;;;4.47;2.60;;;;;;;;;;5150624;27;20208;-68
2023/10/01 04:36:50;;;;;;;4.77;2.83;;;;;;;;;;5150547;27;20564;-68
2023/10/01 04:39:17;;;;;;;2.70;2.50;;;;;;;;;;5150593;27;20225;-68
2023/10/01 04:41:45;;;;;;;3.80;2.43;;;;;;;;;;5150702;27;20196;-68
2023/10/01 04:44:19;;;;;;;3.20;2.43;;;;;;;;;;5150293;27;20658;-68
2023/10/01 04:46:51;;;;;;;2.80;2.47;;;;;;;;;;5154291;27;20664;-68
2023/10/01 04:49:41;;;;;;;3.67;2.40;;;;;;;;;;5149560;27;20633;-68
2023/10/01 04:52:11;;;;;;;3.87;2.30;;;;;;;;;;5152879;27;20578;-67
2023/10/01 04:54:40;;;;;;;3.33;2.40;;;;;;;;;;5170951;27;20235;-68
2023/10/01 04:57:07;;;;;;;3.87;2.63;;;;;;;;;;5153754;27;20268;-68
2023/10/01 04:59:34;;;;;;;2.23;2.00;;;;;;;;;;5151658;27;20215;-68
2023/10/01 05:02:18;;;;;;;2.00;1.90;;;;;;;;;;5152257;27;20202;-68
2023/10/01 05:04:46;;;;;;;2.17;1.97;;;;;;;;;;5150665;27;20261;-68
2023/10/01 05:07:15;;;;;;;3.40;2.00;;;;;;;;;;5149768;27;20200;-68
2023/10/01 05:09:43;;;;;;;2.43;2.33;;;;;;;;;;5149394;27;20208;-68
2023/10/01 05:12:11;;;;;;;2.73;2.23;;;;;;;;;;5149382;27;20319;-68
2023/10/01 05:14:58;;;;;;;1.73;1.63;;;;;;;;;;5149264;27;20212;-68
2023/10/01 05:17:30;;;;;;;2.30;2.17;;;;;;;;;;5130233;27;20224;-67
2023/10/01 05:19:58;;;;;;;2.60;2.40;;;;;;;;;;5128790;27;20290;-68
2023/10/01 05:22:25;;;;;;;2.63;2.43;;;;;;;;;;5128754;27;20659;-68
2023/10/01 05:24:52;;;;;;;2.60;2.40;;;;;;;;;;5142278;27;20203;-68
2023/10/01 05:27:20;;;;;;;3.93;2.17;;;;;;;;;;5148554;27;20230;-67
2023/10/01 05:29:48;;;;;;;2.63;2.30;;;;;;;;;;5149648;27;20216;-67
2023/10/01 05:32:18;;;;;;;2.70;2.20;;;;;;;;;;5149078;27;20324;-68
2023/10/01 05:34:46;;;;;;;3.80;2.40;;;;;;;;;;5148356;27;20576;-68
2023/10/01 05:37:24;;;;;;;4.27;2.30;;;;;;;;;;5148826;27;20240;-67
2023/10/01 05:39:57;;;;;;;3.60;2.23;;;;;;;;;;5149841;27;20393;-67
2023/10/01 05:42:25;;;;;;;1.93;1.90;;;;;;;;;;5158942;27;20654;-67
2023/10/01 05:44:54;;;;;;;2.03;1.93;;;;;;;;;;5160283;27;20295;-67
2023/10/01 05:47:22;;;;;;;3.40;2.47;;;;;;;;;;5162640;27;20226;-67
2023/10/01 05:49:53;;;;;;;2.50;2.40;;;;;;;;;;5148246;27;20291;-67
2023/10/01 05:52:21;;;;;;;6.43;2.83;;;;;;;;;;5154961;27;20306;-68
2023/10/01 05:54:52;;;;;;;2.63;2.43;;;;;;;;;;5148561;27;20614;-67
2023/10/01 05:57:21;;;;;;;2.80;2.60;;;;;;;;;;5148581;27;20208;-67
2023/10/01 05:59:56;;;;;;;4.33;1.93;;;;;;;;;;5145482;27;20272;-67
2023/10/01 06:02:41;;;;;;;2.40;2.30;;;;;;;;;;5153959;27;20191;-67
2023/10/01 06:05:25;;;;;;;2.83;2.03;;;;;;;;;;5159602;27;20673;-67
2023/10/01 06:07:52;;;;;;;4.50;2.37;;;;;;;;;;5159369;27;20223;-67
2023/10/01 06:10:19;;;;;;;3.23;2.20;;;;;;;;;;5148502;27;20204;-67
2023/10/01 06:12:50;;;;;;;2.50;2.23;;;;;;;;;;5148487;27;20233;-67
2023/10/01 06:15:20;;;;;;;2.37;2.20;;;;;;;;;;5148126;27;20200;-67
2023/10/01 06:17:47;;;;;;;2.60;2.40;;;;;;;;;;5149759;27;20220;-68
2023/10/01 06:20:26;;;;;;;2.50;2.20;;;;;;;;;;5148998;27;20873;-68
2023/10/01 06:22:53;;;;;;;2.37;2.17;;;;;;;;;;5148780;27;20713;-68
2023/10/01 06:25:37;;;;;;;4.20;2.40;;;;;;;;;;5140384;27;20697;-68
2023/10/01 06:28:07;;;;;;;2.27;2.17;;;;;;;;;;5147326;27;20665;-68
2023/10/01 06:30:34;;;;;;;2.43;2.20;;;;;;;;;;5156765;27;20227;-66
2023/10/01 06:33:02;;;;;;;2.50;2.40;;;;;;;;;;5160366;27;20232;-67
2023/10/01 06:35:31;;;;;;;2.50;2.37;;;;;;;;;;5148872;27;20577;-67
2023/10/01 06:37:59;;;;;;;2.43;2.33;;;;;;;;;;5148761;27;20208;-66
2023/10/01 06:40:32;;;;;;;5.33;2.53;;;;;;;;;;5148484;27;20219;-67
2023/10/01 06:42:59;;;;;;;3.13;2.60;;;;;;;;;;5147365;27;20231;-67
2023/10/01 06:45:44;;;;;;;3.17;2.97;;;;;;;;;;5148295;27;20256;-68
2023/10/01 06:48:14;;;;;;;4.63;2.37;;;;;;;;;;5148230;27;20588;-67
2023/10/01 06:50:44;;;;;;;2.60;2.40;;;;;;;;;;5148663;27;20218;-67
2023/10/01 06:53:13;;;;;;;4.43;1.97;;;;;;;;;;5132973;27;20303;-69
2023/10/01 06:55:45;;;;;;;3.00;2.20;;;;;;;;;;5156101;27;20192;-67
2023/10/01 06:58:13;;;;;;;2.80;2.60;;;;;;;;;;5154472;27;20476;-67
2023/10/01 07:00:41;;;;;;;6.80;2.60;;;;;;;;;;5153393;27;20204;-67
2023/10/01 07:03:19;;;;;;;2.73;2.60;;;;;;;;;;5153056;27;20208;-67
2023/10/01 07:05:51;;;;;;;5.60;3.00;;;;;;;;;;5152703;27;20253;-68
2023/10/01 07:08:21;;;;;;;2.43;2.33;;;;;;;;;;5153536;27;20206;-67
2023/10/01 07:10:50;;;;;;;5.70;3.10;;;;;;;;;;5152077;27;20203;-67
2023/10/01 07:13:17;;;;;;;11.83;3.60;;;;;;;;;;5152593;27;20211;-67
2023/10/01 07:15:46;;;;;;;4.93;3.93;;;;;;;;;;5151405;27;20193;-67
2023/10/01 07:18:19;;;;;;;4.57;3.50;;;;;;;;;;5152421;27;21225;-66
2023/10/01 07:20:49;;;;;;;7.03;4.13;;;;;;;;;;5151669;27;20753;-67
2023/10/01 07:23:18;;;;;;;4.27;3.63;;;;;;;;;;5161395;27;20228;-66
2023/10/01 07:25:47;;;;;;;4.80;3.77;;;;;;;;;;5151336;27;20197;-66
2023/10/01 07:28:18;;;;;;;6.40;4.67;;;;;;;;;;5151541;27;20261;-68
2023/10/01 07:30:51;;;;;;;4.97;4.37;;;;;;;;;;5145424;27;20303;-67
2023/10/01 07:33:20;;;;;;;4.57;4.10;;;;;;;;;;5151875;27;20898;-66
2023/10/01 07:35:58;;;;;;;7.73;4.90;;;;;;;;;;5151943;27;20208;-67
2023/10/01 07:38:26;;;;;;;6.47;5.03;;;;;;;;;;5154976;27;20211;-67
2023/10/01 07:40:57;;;;;;;8.00;5.23;;;;;;;;;;5152056;27;20888;-67
2023/10/01 07:43:24;;;;;;;7.67;4.87;;;;;;;;;;5151802;27;20211;-66
2023/10/01 07:45:58;;;;;;;10.73;5.63;;;;;;;;;;5152108;27;20200;-66
2023/10/01 07:48:27;;;;;;;8.53;5.63;;;;;;;;;;5151948;27;20295;-66
2023/10/01 07:50:56;;;;;;;7.25;5.53;;;;;;;;;;5151290;27;20196;-68
2023/10/01 07:53:32;;;;;;;6.68;5.28;;;;;;;;;;5152028;27;20203;-68
2023/10/01 07:55:59;;;;;;;7.63;5.80;;;;;;;;;;5131107;27;20287;-66
2023/10/01 07:58:44;;;;;;;11.73;6.53;;;;;;;;;;5146687;27;20216;-67
2023/10/01 08:03:56;;;;;;;11.47;6.37;;;;;;;;;;5160325;27;20206;-67
2023/10/01 08:06:29;;;;;;;10.13;5.80;;;;;;;;;;5172849;27;20564;-64
2023/10/01 08:08:58;;;;;;;8.93;6.45;;;;;;;;;;5152304;27;20280;-65
2023/10/01 08:14:10;;;;;;;14.80;6.55;;;;;;;;;;5151443;27;20198;-64
2023/10/01 08:16:47;;;;;;;9.50;7.10;;;;;;;;;;5136611;27;20208;-64
2023/10/01 08:19:14;;;;;;;12.70;7.82;;;;;;;;;;5145646;27;20218;-62
2023/10/01 08:21:48;;;;;;;12.85;7.60;;;;;;;;;;5153642;27;20200;-64
2023/10/01 08:24:18;;;;;;;11.82;7.53;;;;;;;;;;5165338;27;20943;-68
2023/10/01 08:26:49;;;;;;;14.55;7.35;;;;;;;;;;5150889;27;20208;-68
2023/10/01 08:29:15;;;;;;;11.65;7.70;;;;;;;;;;5137474;27;20289;-68
2023/10/01 08:34:28;;;;;;;13.38;7.88;;;;;;;;;;5150804;27;20340;-68
2023/10/01 08:36:56;;;;;;;12.65;7.65;;;;;;;;;;5150405;27;20196;-63
2023/10/01 08:39:35;;;;;;;11.45;7.38;;;;;;;;;;5150942;27;20215;-67
2023/10/01 08:42:08;;;;;;;13.50;7.68;;;;;;;;;;5148654;27;20574;-62
2023/10/01 08:44:44;;;;;;;17.05;7.63;;;;;;;;;;5150455;27;20228;-71
2023/10/01 08:47:26;;;;;;;13.70;7.57;;;;;;;;;;5147164;27;20210;-65
2023/10/01 08:49:55;;;;;;;11.65;7.65;;;;;;;;;;5143947;27;20212;-64
2023/10/01 08:52:27;;;;;;;10.90;7.20;;;;;;;;;;5146111;27;20220;-70
2023/10/01 08:54:54;;;;;;;12.63;7.68;;;;;;;;;;5146854;27;20236;-67
2023/10/01 08:57:36;;;;;;;12.27;7.47;;;;;;;;;;5145400;27;20219;-63
2023/10/01 09:00:14;;;;;;;12.18;7.95;;;;;;;;;;5143510;27;20216;-63
2023/10/01 09:02:41;;;;;;;10.95;7.40;;;;;;;;;;5132460;27;20196;-63
2023/10/01 09:05:11;;;;;;;12.43;6.97;;;;;;;;;;5155435;27;20193;-63
2023/10/01 09:07:46;;;;;;;13.68;8.02;;;;;;;;;;5157626;27;20210;-63
2023/10/01 09:10:17;;;;;;;13.75;7.63;;;;;;;;;;5149578;27;20208;-63
2023/10/01 09:12:46;;;;;;;11.35;7.07;;;;;;;;;;5148290;27;20317;-62
2023/10/01 09:15:27;;;;;;;20.08;9.18;;;;;;;;;;5143766;27;20287;-65
2023/10/01 09:17:57;;;;;;;16.25;8.25;;;;;;;;;;5149689;27;20611;-60
2023/10/01 09:20:42;;;;;;;14.82;8.02;;;;;;;;;;5151076;27;20236;-63
2023/10/01 09:23:10;;;;;;;17.52;8.48;;;;;;;;;;5148095;27;20251;-60
2023/10/01 09:25:41;;;;;;;14.35;6.82;;;;;;;;;;5148661;27;20212;-62
2023/10/01 09:28:20;;;;;;;12.13;7.20;;;;;;;;;;5149101;27;20211;-64
2023/10/01 09:31:03;;;;;;;11.60;7.07;;;;;;;;;;5148865;27;20220;-63
2023/10/01 09:33:32;;;;;;;9.15;6.22;;;;;;;;;;5148393;27;20248;-63
2023/10/01 09:36:00;;;;;;;13.65;6.95;;;;;;;;;;5148659;27;20401;-65
2023/10/01 09:38:28;;;;;;;15.10;7.00;;;;;;;;;;5157730;27;20662;-63
2023/10/01 09:40:56;;;;;;;11.95;7.35;;;;;;;;;;5148459;27;20207;-64
2023/10/01 09:43:27;;;;;;;10.52;6.45;;;;;;;;;;5148394;27;20196;-64
2023/10/01 09:45:57;;;;;;;11.77;6.85;;;;;;;;;;5149464;27;20634;-68
2023/10/01 09:48:30;;;;;;;13.45;7.05;;;;;;;;;;5148890;27;20204;-64
2023/10/01 09:51:07;;;;;;;14.18;6.93;;;;;;;;;;5148034;27;20308;-63
2023/10/01 09:53:43;;;;;;;9.68;6.15;;;;;;;;;;5149397;27;20310;-67
2023/10/01 09:56:12;;;;;;;10.05;6.15;;;;;;;;;;5142133;27;20231;-62
2023/10/01 09:58:46;;;;;;;12.45;7.45;;;;;;;;;;5148407;27;20690;-69
2023/10/01 10:01:17;;;;;;;13.45;7.40;;;;;;;;;;5147249;27;20224;-62
2023/10/01 10:03:45;;;;;;;10.95;6.85;;;;;;;;;;5148519;27;20550;-63
2023/10/01 10:06:24;;;;;;;8.55;6.40;;;;;;;;;;5151240;27;20204;-62
2023/10/01 10:09:03;;;;;;;12.15;6.82;;;;;;;;;;5148082;27;20389;-63
2023/10/01 10:11:36;;;;;;;14.77;6.40;;;;;;;;;;5148909;27;20208;-62
2023/10/01 10:14:03;;;;;;;9.40;6.35;;;;;;;;;;5150413;27;20816;-63
2023/10/01 10:16:33;;;;;;;8.85;5.78;;;;;;;;;;5167490;27;20598;-62
2023/10/01 10:19:05;;;;;;;9.85;5.82;;;;;;;;;;5154303;27;20220;-62
2023/10/01 10:21:46;;;;;;;12.40;6.32;;;;;;;;;;5161625;27;20203;-62
2023/10/01 10:24:21;;;;;;;10.85;6.22;;;;;;;;;;5154347;27;20200;-61
2023/10/01 10:26:57;;;;;;;10.82;5.72;;;;;;;;;;5147514;27;20270;-67
2023/10/01 10:29:24;;;;;;;12.68;6.22;;;;;;;;;;5136924;27;20209;-63
2023/10/01 10:32:09;;;;;;;14.05;6.05;;;;;;;;;;5140777;27;20208;-63
2023/10/01 10:34:47;;;;;;;8.57;5.25;;;;;;;;;;5147010;27;20283;-63
2023/10/01 10:37:44;;;;;;;8.60;5.32;;;;;;;;;;5145483;27;20200;-63
2023/10/01 10:40:26;;;;;;;10.27;5.47;;;;;;;;;;5146184;27;20204;-62
2023/10/01 10:43:16;;;;;;;12.18;5.95;;;;;;;;;;5156785;27;20207;-65
2023/10/01 10:45:57;;;;;;;10.75;5.75;;;;;;;;;;5148861;27;20216;-64
2023/10/01 10:48:44;;;;;;;9.40;5.53;;;;;;;;;;5147847;27;20291;-64
2023/10/01 10:51:18;;;;;;;9.93;5.47;;;;;;;;;;5161297;27;20218;-63
2023/10/01 10:53:46;;;;;;;9.45;5.65;;;;;;;;;;5169025;27;20223;-63
2023/10/01 10:56:15;;;;;;;9.18;4.95;;;;;;;;;;5166094;27;20228;-62
2023/10/01 10:58:46;;;;;;;8.20;5.78;;;;;;;;;;5146854;27;20204;-63
2023/10/01 11:01:18;;;;;;;9.65;5.90;;;;;;;;;;5148514;27;20200;-63
2023/10/01 11:03:47;;;;;;;8.82;5.53;;;;;;;;;;5155763;27;20191;-65
2023/10/01 11:06:17;;;;;;;8.07;5.55;;;;;;;;;;5150304;27;20209;-63
2023/10/01 11:08:50;;;;;;;7.32;5.32;;;;;;;;;;5150425;27;20295;-64
2023/10/01 11:11:21;;;;;;;8.40;4.85;;;;;;;;;;5138475;27;20720;-64
2023/10/01 11:13:59;;;;;;;12.27;6.00;;;;;;;;;;5147185;27;20235;-64
2023/10/01 11:16:33;;;;;;;10.63;5.10;;;;;;;;;;5144445;27;20208;-65
2023/10/01 11:19:12;;;;;;;6.60;4.60;;;;;;;;;;5145208;27;20245;-64
2023/10/01 11:21:44;;;;;;;9.50;5.05;;;;;;;;;;5141001;27;20219;-64
2023/10/01 11:24:12;;;;;;;9.07;5.57;;;;;;;;;;5162010;27;20238;-64
2023/10/01 11:26:54;;;;;;;10.00;5.55;;;;;;;;;;5141373;27;20209;-64
2023/10/01 11:29:23;;;;;;;9.45;5.20;;;;;;;;;;5141840;27;20208;-64
2023/10/01 11:31:51;;;;;;;7.45;4.85;;;;;;;;;;5142612;27;20219;-65
2023/10/01 11:34:26;;;;;;;10.23;5.30;;;;;;;;;;5147373;27;20536;-65
2023/10/01 11:36:56;;;;;;;9.95;4.93;;;;;;;;;;5154738;27;20240;-64
2023/10/01 11:39:38;;;;;;;10.35;4.90;;;;;;;;;;5154462;27;20894;-67
2023/10/01 11:42:19;;;;;;;9.88;5.20;;;;;;;;;;5147945;27;20591;-69
2023/10/01 11:44:52;;;;;;;6.88;4.30;;;;;;;;;;5147998;27;20196;-68
2023/10/01 11:47:31;;;;;;;8.82;5.15;;;;;;;;;;5142402;27;20205;-68
2023/10/01 11:50:07;;;;;;;10.13;4.78;;;;;;;;;;5150870;27;20200;-68
2023/10/01 11:52:34;;;;;;;8.38;4.93;;;;;;;;;;5151692;27;20226;-68
2023/10/01 11:55:01;;;;;;;8.57;5.25;;;;;;;;;;5150757;27;20204;-67
2023/10/01 11:57:31;;;;;;;8.38;4.45;;;;;;;;;;5154332;27;20200;-66
2023/10/01 12:00:01;;;;;;;12.45;5.75;;;;;;;;;;5150572;27;20208;-67
2023/10/01 12:02:31;;;;;;;5.82;4.20;;;;;;;;;;5157708;27;20200;-67
2023/10/01 12:04:59;;;;;;;11.98;5.90;;;;;;;;;;5150886;27;20202;-66
2023/10/01 12:07:32;;;;;;;10.77;5.43;;;;;;;;;;5136504;27;20216;-63
2023/10/01 12:09:59;;;;;;;6.97;4.75;;;;;;;;;;5151030;27;20200;-63
2023/10/01 12:12:27;;;;;;;6.85;4.80;;;;;;;;;;5149412;27;20666;-62
2023/10/01 12:14:55;;;;;;;10.80;5.63;;;;;;;;;;5150735;27;20192;-64
2023/10/01 12:17:33;;;;;;;6.90;4.70;;;;;;;;;;5152435;27;20503;-64
2023/10/01 12:20:01;;;;;;;9.27;5.40;;;;;;;;;;5150381;27;20212;-64
2023/10/01 12:22:29;;;;;;;10.00;4.85;;;;;;;;;;5139317;27;20256;-63
2023/10/01 12:25:00;;;;;;;9.52;4.85;;;;;;;;;;5150293;27;20200;-63
2023/10/01 12:27:45;;;;;;;8.52;4.63;;;;;;;;;;5149417;27;20686;-61
2023/10/01 12:30:27;;;;;;;11.18;5.38;;;;;;;;;;5154863;27;20205;-59
2023/10/01 12:32:56;;;;;;;9.23;5.00;;;;;;;;;;5146902;27;20247;-63
2023/10/01 12:35:29;;;;;;;8.27;4.82;;;;;;;;;;5149807;27;20291;-63
2023/10/01 12:40:43;;;;;;;7.85;5.32;;;;;;;;;;5159650;27;20397;-61
2023/10/01 12:43:36;;;;;;;10.15;4.40;;;;;;;;;;5162260;27;20749;-63
2023/10/01 12:46:01;;;;;;;7.07;4.38;;;;;;;;;;5159541;27;20207;-61
2023/10/01 12:48:29;;;;;;;9.07;4.97;;;;;;;;;;5149226;27;20207;-60
2023/10/01 12:51:03;;;;;;;9.40;4.60;;;;;;;;;;5150353;27;20272;-62
2023/10/01 12:53:34;;;;;;;9.30;5.32;;;;;;;;;;5151393;27;20222;-64
2023/10/01 12:56:02;;;;;;;8.85;5.13;;;;;;;;;;5150016;27;20670;-63
2023/10/01 12:58:39;;;;;;;10.35;4.80;;;;;;;;;;5151944;27;20470;-67
2023/10/01 13:01:23;;;;;;;8.60;4.75;;;;;;;;;;5151774;27;20212;-64
2023/10/01 13:03:52;;;;;;;7.75;5.10;;;;;;;;;;5149617;27;20206;-65
2023/10/01 13:06:19;;;;;;;8.13;4.30;;;;;;;;;;5149184;27;20200;-65
2023/10/01 13:08:45;;;;;;;7.00;5.00;;;;;;;;;;5150078;27;20200;-65
2023/10/01 13:11:46;;;;;;;9.93;5.22;;;;;;;;;;5152946;27;20200;-65
2023/10/01 13:14:16;;;;;;;7.40;4.68;;;;;;;;;;5153412;27;20220;-65
2023/10/01 13:16:49;;;;;;;7.68;4.88;;;;;;;;;;5148642;27;20196;-65
2023/10/01 13:19:22;;;;;;;8.98;4.75;;;;;;;;;;5149256;27;20322;-64
2023/10/01 13:21:49;;;;;;;8.27;5.13;;;;;;;;;;5149226;27;20212;-65
2023/10/01 13:24:17;;;;;;;7.68;4.55;;;;;;;;;;5153463;27;20197;-65
2023/10/01 13:26:45;;;;;;;7.10;4.70;;;;;;;;;;5149142;27;20196;-64
2023/10/01 13:29:28;;;;;;;9.85;5.13;;;;;;;;;;5154266;27;20212;-64
2023/10/01 13:32:02;;;;;;;8.23;4.78;;;;;;;;;;5162661;27;20200;-64
2023/10/01 13:34:48;;;;;;;9.57;5.28;;;;;;;;;;5146642;27;20367;-64
2023/10/01 13:37:42;;;;;;;8.57;5.13;;;;;;;;;;5148344;27;20793;-64
2023/10/01 13:40:19;;;;;;;7.55;4.70;;;;;;;;;;5144127;27;20720;-64
2023/10/01 14:10:27;;;;;;;9.48;4.95;;;;;;;;;;5150143;27;20211;-68
2023/10/01 14:12:57;;;;;;;11.38;5.43;;;;;;;;;;5141454;27;20220;-65
2023/10/01 14:15:25;;;;;;;8.90;5.40;;;;;;;;;;5146461;27;20208;-68
2023/10/01 14:17:56;;;;;;;7.70;4.78;;;;;;;;;;5145189;27;20673;-63
2023/10/01 14:20:44;;;;;;;8.00;5.40;;;;;;;;;;5150711;27;20204;-65
2023/10/01 14:23:28;;;;;;;9.23;5.00;;;;;;;;;;5142609;27;20828;-65
2023/10/01 14:25:59;;;;;;;9.52;4.78;;;;;;;;;;5145071;27;20736;-65
2023/10/01 14:28:27;;;;;;;7.40;4.90;;;;;;;;;;5132042;27;20208;-63
2023/10/01 14:31:02;;;;;;;8.15;5.18;;;;;;;;;;5146602;27;20196;-64
2023/10/01 14:33:30;;;;;;;9.10;4.93;;;;;;;;;;5145751;27;20234;-64
2023/10/01 14:36:02;;;;;;;10.35;5.13;;;;;;;;;;5145137;27;20208;-66
2023/10/01 14:38:37;;;;;;;7.25;4.30;;;;;;;;;;5145460;27;20658;-66
2023/10/01 14:41:09;;;;;;;8.32;4.97;;;;;;;;;;5145129;27;20200;-67
2023/10/01 14:43:48;;;;;;;9.07;5.07;;;;;;;;;;5141672;27;20206;-65
2023/10/01 14:46:15;;;;;;;11.60;5.35;;;;;;;;;;5145052;27;20219;-65
2023/10/01 14:48:45;;;;;;;9.02;4.72;;;;;;;;;;5145527;27;20352;-65
2023/10/01 14:51:13;;;;;;;9.77;5.05;;;;;;;;;;5142964;27;22536;-65
2023/10/01 14:53:41;;;;;;;8.27;4.90;;;;;;;;;;5145602;27;20552;-66
2023/10/01 14:56:08;;;;;;;8.88;4.60;;;;;;;;;;5146967;27;20760;-66
2023/10/01 14:58:35;;;;;;;7.35;4.97;;;;;;;;;;5144674;27;20310;-66
2023/10/01 15:01:08;;;;;;;8.10;4.55;;;;;;;;;;5145989;27;20204;-67
2023/10/01 15:03:35;;;;;;;8.48;5.18;;;;;;;;;;5148055;27;20307;-66
2023/10/01 15:06:03;;;;;;;9.45;5.30;;;;;;;;;;5149263;27;20204;-62
2023/10/01 15:08:31;;;;;;;7.95;4.63;;;;;;;;;;5169053;27;20314;-63
2023/10/01 15:11:11;;;;;;;9.90;4.70;;;;;;;;;;5153136;27;20211;-64
2023/10/01 15:13:38;;;;;;;9.45;5.00;;;;;;;;;;5148179;27;20224;-65
2023/10/01 15:16:05;;;;;;;9.93;4.90;;;;;;;;;;5148613;27;20212;-65
2023/10/01 15:18:33;;;;;;;11.27;4.90;;;;;;;;;;5148204;27;20220;-65
2023/10/01 15:21:09;;;;;;;8.80;4.78;;;;;;;;;;5149106;27;20621;-65
2023/10/01 15:23:44;;;;;;;9.10;5.00;;;;;;;;;;5164027;27;20226;-65
2023/10/01 15:26:12;;;;;;;8.07;4.55;;;;;;;;;;5152383;27;20264;-65
2023/10/01 15:28:50;;;;;;;10.18;4.53;;;;;;;;;;5152121;27;20297;-65
2023/10/01 15:31:18;;;;;;;9.13;4.75;;;;;;;;;;5144766;27;20570;-65
2023/10/01 15:34:00;;;;;;;8.43;5.07;;;;;;;;;;5156437;27;20284;-65
2023/10/01 15:36:40;;;;;;;7.50;4.68;;;;;;;;;;5157799;27;20294;-63
2023/10/01 15:39:14;;;;;;;6.80;5.20;;;;;;;;;;5150593;27;20199;-64
2023/10/01 15:41:43;;;;;;;10.27;5.00;;;;;;;;;;5152812;27;20210;-61
2023/10/01 15:44:10;;;;;;;10.45;5.10;;;;;;;;;;5153972;27;20226;-58
2023/10/01 15:46:40;;;;;;;10.10;5.03;;;;;;;;;;5153227;27;20204;-63
2023/10/01 15:49:18;;;;;;;8.82;5.03;;;;;;;;;;5155917;27;20292;-68
2023/10/01 15:51:46;;;;;;;11.70;5.57;;;;;;;;;;5166503;27;20199;-66
2023/10/01 15:54:22;;;;;;;8.38;4.85;;;;;;;;;;5166830;27;20818;-66
2023/10/01 15:56:50;;;;;;;8.15;5.13;;;;;;;;;;5161747;27;20195;-67
2023/10/01 15:59:19;;;;;;;7.30;4.90;;;;;;;;;;5156258;27;20212;-69